Whitman, Nebraska
Current Conditions -  °F | °C
As of 4:35 PM on Thursday 18 Dec 2014 (Local Time) from KTIF Reporting Station
Clear Clear  
Wind Chill: 18°   Ceiling: Unl
Heat Index: 25°   Visibility: 7mi
Dew Point: 23°   Wind: 6mph
Humidity: 94%   Direction: 190°S
Pressure: 30.06"   Gusts: NA
Location:  42.04°N, 101.52°W
Report Text: KTIF 182335Z AUTO 19005KT 7SM CLR M04/M05 A3006 RMK AO2 T10401048
Loading
Personal Weather Stations






























Interactive Weather Map New forecast layout! Learn more

10-Day Weather Forecast

Advertisements
Track Severe Weather on mobile